Time;durP1;ratioP1;P1;durP2;ratioP2;P2;SDS_P1;SDS_P2;PMS_P1;PMS_P2;Temp;Humidity;BMP_temperature;BMP_pressure;BME280_temperature;BME280_humidity;BME280_pressure;Samples;Min_cycle;Max_cycle;Signal;HPM_P1;HPM_P2
2021/11/04 00:00:10;;;;;;;15.75;9.40;;;;;;;8.53;74.39;97352.05;1748841;82;21000;-80
2021/11/04 00:02:40;;;;;;;15.88;9.20;;;;;;;8.52;74.47;97355.14;1741852;82;21521;-80
2021/11/04 00:05:07;;;;;;;16.32;9.23;;;;;;;8.51;74.33;97366.59;1731916;83;21024;-80
2021/11/04 00:07:35;;;;;;;16.57;9.25;;;;;;;8.50;74.43;97363.55;1742679;82;20984;-80
2021/11/04 00:10:04;;;;;;;17.52;9.60;;;;;;;8.50;74.42;97358.27;1747452;82;21037;-80
2021/11/04 00:12:30;;;;;;;17.00;9.50;;;;;;;8.51;74.51;97363.11;1739820;82;21449;-81
2021/11/04 00:14:57;;;;;;;17.80;9.50;;;;;;;8.49;74.54;97358.31;1739091;82;21100;-81
2021/11/04 00:17:23;;;;;;;18.10;9.03;;;;;;;8.49;74.57;97353.91;1739433;82;21026;-81
2021/11/04 00:19:50;;;;;;;17.02;8.60;;;;;;;8.48;74.46;97348.22;1744175;82;21002;-80
2021/11/04 00:22:16;;;;;;;15.25;8.70;;;;;;;8.48;74.76;97356.59;1748021;82;21022;-80
2021/11/04 00:24:43;;;;;;;17.20;9.15;;;;;;;8.45;74.74;97366.79;1748505;82;20986;-81
2021/11/04 00:27:09;;;;;;;16.32;8.93;;;;;;;8.42;74.62;97357.19;1747274;82;21119;-80
2021/11/04 00:29:36;;;;;;;13.43;8.78;;;;;;;8.42;74.48;97348.39;1748452;82;21064;-81
2021/11/04 00:32:04;;;;;;;14.38;8.08;;;;;;;8.42;74.68;97353.67;1748418;82;20986;-81
2021/11/04 00:34:31;;;;;;;17.32;9.63;;;;;;;8.42;74.60;97357.63;1748431;82;21032;-81
2021/11/04 00:36:57;;;;;;;15.68;8.93;;;;;;;8.42;74.57;97348.39;1736650;82;21043;-81
2021/11/04 00:39:25;;;;;;;14.70;8.40;;;;;;;8.41;74.78;97346.23;1735013;82;21009;-80
2021/11/04 00:41:52;;;;;;;15.18;8.60;;;;;;;8.40;74.78;97339.67;1731505;82;21080;-81
2021/11/04 00:44:18;;;;;;;14.75;9.10;;;;;;;8.39;74.91;97340.11;1731423;83;21482;-82
2021/11/04 00:46:45;;;;;;;16.15;9.38;;;;;;;8.38;74.72;97336.22;1735785;82;21013;-82
2021/11/04 00:49:12;;;;;;;17.70;10.00;;;;;;;8.37;74.72;97336.67;1719115;82;21354;-82
2021/11/04 00:51:39;;;;;;;15.63;9.18;;;;;;;8.36;74.67;97339.34;1747832;82;21060;-81
2021/11/04 00:54:05;;;;;;;16.17;9.45;;;;;;;8.35;74.67;97340.27;1734762;82;21032;-81
2021/11/04 00:56:32;;;;;;;15.58;9.75;;;;;;;8.33;74.81;97328.43;1726033;82;21031;-81
2021/11/04 00:58:59;;;;;;;14.78;8.90;;;;;;;8.32;74.72;97330.67;1746115;82;20958;-81
2021/11/04 01:01:25;;;;;;;15.15;8.95;;;;;;;8.31;74.71;97327.16;1739782;82;21021;-81
2021/11/04 01:03:53;;;;;;;17.50;10.35;;;;;;;8.30;74.73;97329.83;1738316;82;21028;-81
2021/11/04 01:06:21;;;;;;;15.38;9.28;;;;;;;8.29;74.61;97323.70;1748459;82;21494;-81
2021/11/04 01:08:49;;;;;;;15.70;9.03;;;;;;;8.28;74.79;97325.95;1748462;82;21062;-80
2021/11/04 01:11:17;;;;;;;16.10;9.20;;;;;;;8.28;75.04;97323.30;1748590;82;21021;-80
2021/11/04 01:13:44;;;;;;;14.40;8.83;;;;;;;8.25;74.78;97322.52;1748540;82;21002;-80
2021/11/04 01:16:14;;;;;;;19.15;9.60;;;;;;;8.24;74.79;97323.43;1747956;82;21061;-80
2021/11/04 01:18:40;;;;;;;14.85;9.70;;;;;;;8.23;74.84;97315.11;1726039;82;20993;-80
2021/11/04 01:21:07;;;;;;;18.50;10.23;;;;;;;8.24;74.73;97307.59;1748536;82;21057;-80
2021/11/04 01:23:34;;;;;;;16.37;9.23;;;;;;;8.21;74.91;97311.20;1748522;82;21001;-80
2021/11/04 01:26:01;;;;;;;16.27;8.83;;;;;;;8.21;74.92;97291.88;1743057;82;21061;-80
2021/11/04 01:28:27;;;;;;;15.03;9.55;;;;;;;8.21;74.92;97286.59;1745529;82;21011;-80
2021/11/04 01:30:54;;;;;;;16.07;9.15;;;;;;;8.19;75.11;97278.72;1732890;82;21463;-80
2021/11/04 01:33:20;;;;;;;14.28;9.10;;;;;;;8.18;75.08;97283.59;1724962;83;21043;-80
2021/11/04 01:35:48;;;;;;;15.20;9.65;;;;;;;8.18;74.96;97287.55;1745712;82;21127;-81
2021/11/04 01:38:17;;;;;;;19.52;9.53;;;;;;;8.16;74.87;97286.27;1741554;82;20939;-80
2021/11/04 01:40:44;;;;;;;15.28;10.30;;;;;;;8.16;75.08;97281.00;1738756;82;21464;-80
2021/11/04 01:43:11;;;;;;;16.75;9.68;;;;;;;8.17;74.92;97279.20;1738913;82;20960;-80
2021/11/04 01:45:37;;;;;;;18.52;9.90;;;;;;;8.21;75.20;97282.63;1739981;82;21012;-80
2021/11/04 01:48:05;;;;;;;15.80;9.90;;;;;;;8.23;75.05;97271.55;1700448;84;21020;-80
2021/11/04 01:50:33;;;;;;;18.37;10.03;;;;;;;8.25;75.00;97278.95;1700706;84;20997;-79
2021/11/04 01:52:59;;;;;;;16.93;9.05;;;;;;;8.25;74.98;97275.88;1675200;84;21020;-81
2021/11/04 01:55:28;;;;;;;16.52;9.20;;;;;;;8.28;75.11;97270.51;1700344;84;21025;-82
2021/11/04 01:57:58;;;;;;;16.25;9.28;;;;;;;8.30;75.26;97267.34;1702517;84;21024;-81
2021/11/04 02:00:29;;;;;;;16.70;8.55;;;;;;;8.34;75.33;97269.42;1674356;84;21022;-82
2021/11/04 02:03:13;;;;;;;16.77;8.93;;;;;;;8.38;75.25;97275.02;1682530;84;20998;-81
2021/11/04 02:05:57;;;;;;;14.05;8.58;;;;;;;8.45;75.05;97275.24;1684056;84;21104;-81
2021/11/04 02:08:46;;;;;;;14.17;8.13;;;;;;;8.51;75.39;97269.35;1700770;84;21024;-81
2021/11/04 02:11:17;;;;;;;13.50;8.48;;;;;;;8.59;75.61;97259.41;1672384;86;21393;-81
2021/11/04 02:14:03;;;;;;;15.00;8.45;;;;;;;8.64;75.32;97256.63;1672464;86;21020;-81
2021/11/04 02:16:33;;;;;;;13.20;8.23;;;;;;;8.65;75.02;97272.87;1688062;84;21032;-81
2021/11/04 02:19:21;;;;;;;14.60;8.35;;;;;;;8.64;75.09;97280.41;1679595;84;21028;-81
2021/11/04 02:21:57;;;;;;;12.25;8.40;;;;;;;8.65;75.23;97272.87;1681733;84;21042;-81
2021/11/04 02:24:46;;;;;;;14.33;8.03;;;;;;;8.66;75.25;97283.84;1672451;86;21022;-81
2021/11/04 02:27:14;;;;;;;13.18;8.13;;;;;;;8.66;75.07;97279.87;1679381;84;21057;-81
2021/11/04 02:29:43;;;;;;;13.43;8.05;;;;;;;8.64;74.91;97261.44;1696927;85;21033;-80
2021/11/04 02:32:12;;;;;;;15.72;9.43;;;;;;;8.62;74.89;97269.88;1696834;84;21587;-80
2021/11/04 02:34:41;;;;;;;13.72;7.92;;;;;;;8.60;74.94;97277.01;1700126;84;20988;-80
2021/11/04 02:37:10;;;;;;;12.98;8.48;;;;;;;8.59;75.04;97271.30;1699443;84;20981;-80
2021/11/04 02:39:37;;;;;;;13.35;8.28;;;;;;;8.57;74.92;97266.53;1696615;84;21028;-80
2021/11/04 02:42:05;;;;;;;12.65;8.80;;;;;;;8.55;74.87;97265.25;1702550;84;21065;-80
2021/11/04 02:44:32;;;;;;;13.48;7.62;;;;;;;8.53;74.82;97263.14;1700546;84;20997;-80
2021/11/04 02:46:59;;;;;;;16.52;9.30;;;;;;;8.51;74.66;97258.79;1700456;84;20981;-80
2021/11/04 02:49:27;;;;;;;16.90;8.38;;;;;;;8.49;74.68;97254.88;1700596;84;21068;-80
2021/11/04 02:51:54;;;;;;;14.18;8.88;;;;;;;8.47;74.83;97248.76;1711176;84;21035;-80
2021/11/04 02:54:21;;;;;;;16.02;8.60;;;;;;;8.45;74.65;97244.00;1707083;84;20970;-80
2021/11/04 02:56:51;;;;;;;18.50;8.78;;;;;;;8.43;74.63;97233.48;1703436;84;20988;-80
2021/11/04 02:59:21;;;;;;;16.65;8.95;;;;;;;8.42;74.70;97249.37;1734483;82;20949;-80
2021/11/04 03:01:52;;;;;;;21.45;9.50;;;;;;;8.41;74.56;97256.89;1734223;82;21019;-80
2021/11/04 03:04:20;;;;;;;15.80;9.28;;;;;;;8.39;74.62;97256.09;1743548;80;21005;-80
2021/11/04 03:06:48;;;;;;;15.38;8.83;;;;;;;8.37;75.17;97262.73;1745534;80;21004;-80
2021/11/04 03:09:18;;;;;;;14.20;9.10;;;;;;;8.35;74.79;97263.22;1735227;82;20983;-80
2021/11/04 03:11:46;;;;;;;15.68;8.55;;;;;;;8.35;74.87;97258.42;1748617;82;21066;-79
2021/11/04 03:14:14;;;;;;;15.60;8.75;;;;;;;8.33;74.82;97254.50;1751989;82;21092;-80
2021/11/04 03:16:47;;;;;;;14.05;8.25;;;;;;;8.34;75.06;97251.42;1751888;82;21040;-80
2021/11/04 03:19:16;;;;;;;17.05;8.53;;;;;;;8.34;74.87;97258.02;1751636;80;21029;-80
2021/11/04 03:21:50;;;;;;;18.45;8.28;;;;;;;8.32;75.38;97254.95;1751610;80;21003;-80
2021/11/04 03:24:20;;;;;;;13.58;8.93;;;;;;;8.33;74.97;97251.86;1751718;82;20997;-80
2021/11/04 03:27:00;;;;;;;16.93;8.50;;;;;;;8.34;74.93;97250.09;1751232;82;20949;-80
2021/11/04 03:29:33;;;;;;;14.40;8.03;;;;;;;8.33;74.87;97238.66;1750978;82;21437;-81
2021/11/04 03:32:06;;;;;;;17.32;8.55;;;;;;;8.32;75.00;97239.11;1750948;82;20981;-80
2021/11/04 03:34:34;;;;;;;14.55;8.60;;;;;;;8.31;74.99;97238.70;1750742;82;21005;-81
2021/11/04 03:37:03;;;;;;;16.23;9.38;;;;;;;8.30;75.05;97230.39;1686519;83;20953;-81
2021/11/04 03:39:31;;;;;;;15.35;10.10;;;;;;;8.30;75.33;97229.51;1710733;82;21453;-81
2021/11/04 03:41:59;;;;;;;17.90;10.75;;;;;;;8.28;75.06;97223.44;1709649;84;21434;-81
2021/11/04 03:44:27;;;;;;;17.90;10.43;;;;;;;8.27;75.05;97228.31;1708523;84;21500;-81
2021/11/04 03:46:55;;;;;;;20.23;11.15;;;;;;;8.24;75.13;97229.28;1707664;84;20996;-81
2021/11/04 03:49:24;;;;;;;23.85;10.78;;;;;;;8.20;75.15;97219.73;1671989;84;21064;-81
2021/11/04 03:51:53;;;;;;;20.68;10.28;;;;;;;8.15;75.59;97215.05;1708529;84;21024;-81
2021/11/04 03:54:22;;;;;;;19.00;9.90;;;;;;;8.10;75.46;97220.94;1708590;84;21525;-81
2021/11/04 03:56:52;;;;;;;17.07;9.93;;;;;;;8.06;75.09;97209.63;1664992;84;21584;-81
2021/11/04 03:59:20;;;;;;;19.85;10.68;;;;;;;7.99;75.45;97207.63;1708071;84;21029;-81
2021/11/04 04:01:49;;;;;;;18.60;10.65;;;;;;;7.94;75.79;97209.56;1707700;84;21044;-81
2021/11/04 04:04:16;;;;;;;30.40;9.78;;;;;;;7.88;75.58;97208.41;1708324;84;21032;-81
2021/11/04 04:06:50;;;;;;;17.00;9.93;;;;;;;7.84;75.62;97220.84;1708123;84;21036;-80
2021/11/04 04:09:16;;;;;;;27.60;10.55;;;;;;;7.78;76.15;97219.25;1680305;85;21389;-80
2021/11/04 04:11:43;;;;;;;19.55;9.48;;;;;;;7.73;76.19;97222.48;1692611;84;20962;-81
2021/11/04 04:14:09;;;;;;;18.85;9.50;;;;;;;7.69;76.44;97227.47;1679980;85;21045;-80
2021/11/04 04:16:36;;;;;;;26.02;10.58;;;;;;;7.63;76.22;97225.00;1679772;85;21090;-80
2021/11/04 04:19:03;;;;;;;22.90;9.48;;;;;;;7.59;76.54;97225.98;1696463;84;21065;-80
2021/11/04 04:21:29;;;;;;;18.82;9.80;;;;;;;7.55;76.05;97217.31;1705818;84;21075;-80
2021/11/04 04:23:56;;;;;;;18.23;9.60;;;;;;;7.52;76.18;97210.84;1712814;84;21481;-81
2021/11/04 04:26:23;;;;;;;18.77;8.50;;;;;;;7.46;76.30;97196.05;1708983;84;21055;-81
2021/11/04 04:28:50;;;;;;;16.32;8.43;;;;;;;7.41;76.21;97187.42;1690417;84;21029;-81
2021/11/04 04:31:17;;;;;;;17.52;8.28;;;;;;;7.35;76.59;97184.50;1720701;83;21049;-81
2021/11/04 04:33:43;;;;;;;11.80;7.65;;;;;;;7.29;77.10;97179.86;1708414;84;21012;-81
2021/11/04 04:36:10;;;;;;;16.27;8.73;;;;;;;7.23;76.79;97175.18;1708309;84;21441;-81
2021/11/04 04:38:37;;;;;;;16.00;8.60;;;;;;;7.20;77.36;97173.97;1699459;84;20961;-81
2021/11/04 04:41:04;;;;;;;19.05;8.43;;;;;;;7.16;77.38;97173.65;1696755;85;21048;-81
2021/11/04 04:43:30;;;;;;;16.67;8.40;;;;;;;7.13;77.37;97176.36;1696771;85;21020;-81
2021/11/04 04:45:57;;;;;;;22.55;8.85;;;;;;;7.09;77.27;97180.86;1703910;84;21020;-81
2021/11/04 04:48:24;;;;;;;16.87;8.73;;;;;;;7.07;77.81;97181.37;1704801;84;21024;-80
2021/11/04 04:50:50;;;;;;;16.97;8.38;;;;;;;7.07;77.82;97194.99;1708176;84;21060;-81
2021/11/04 04:53:19;;;;;;;23.00;9.05;;;;;;;7.07;77.99;97196.30;1680110;85;20997;-80
2021/11/04 04:55:45;;;;;;;18.75;9.18;;;;;;;7.05;78.08;97194.19;1747289;82;21000;-81
2021/11/04 04:58:12;;;;;;;17.10;9.48;;;;;;;7.03;78.46;97193.34;1753876;82;20978;-82
2021/11/04 05:00:39;;;;;;;18.15;9.43;;;;;;;7.03;78.00;97209.15;1754211;82;21685;-81
2021/11/04 05:03:06;;;;;;;16.23;8.95;;;;;;;7.03;78.44;97205.20;1732023;81;21020;-82
2021/11/04 05:05:33;;;;;;;22.65;9.58;;;;;;;7.03;78.44;97211.34;1729498;82;20993;-81
2021/11/04 05:07:59;;;;;;;16.27;8.78;;;;;;;7.04;79.15;97212.19;1744037;82;21008;-81
2021/11/04 05:10:26;;;;;;;22.22;9.23;;;;;;;7.06;78.47;97217.83;1742477;81;21024;-81
2021/11/04 05:12:52;;;;;;;20.17;10.03;;;;;;;7.08;78.53;97213.84;1747466;82;20993;-81
2021/11/04 05:15:19;;;;;;;18.45;8.98;;;;;;;7.13;78.28;97209.30;1735279;81;21079;-81
2021/11/04 05:17:45;;;;;;;19.60;9.50;;;;;;;7.18;78.99;97208.71;1749965;81;21036;-81
2021/11/04 05:20:12;;;;;;;20.10;8.48;;;;;;;7.24;79.05;97215.15;1724798;82;20992;-81
2021/11/04 05:22:39;;;;;;;24.90;9.65;;;;;;;7.30;79.25;97222.00;1730145;83;21032;-81
2021/11/04 05:25:07;;;;;;;18.98;8.70;;;;;;;7.39;79.00;97218.22;1692821;85;21028;-81
2021/11/04 05:27:34;;;;;;;20.35;8.45;;;;;;;7.47;78.86;97211.43;1691922;85;21116;-81
2021/11/04 05:30:01;;;;;;;20.08;8.20;;;;;;;7.55;78.92;97212.04;1724500;82;21436;-81
2021/11/04 05:32:28;;;;;;;11.55;7.42;;;;;;;7.62;78.87;97216.23;1680662;85;21026;-81
2021/11/04 05:34:54;;;;;;;16.90;8.98;;;;;;;7.71;78.84;97219.04;1700790;84;21468;-81
2021/11/04 05:37:21;;;;;;;17.87;8.70;;;;;;;7.78;78.97;97206.05;1701480;83;21003;-81
2021/11/04 05:39:48;;;;;;;15.95;8.30;;;;;;;7.87;79.04;97199.66;1713539;83;21404;-81
2021/11/04 05:42:14;;;;;;;17.95;7.33;;;;;;;7.97;78.92;97200.69;1701711;82;21056;-81
2021/11/04 05:44:41;;;;;;;17.07;7.17;;;;;;;8.03;78.68;97193.44;1680394;85;21011;-81
2021/11/04 05:47:07;;;;;;;11.85;7.45;;;;;;;8.16;78.49;97198.30;1704570;81;21445;-81
2021/11/04 05:49:34;;;;;;;13.83;7.60;;;;;;;8.23;78.42;97189.28;1729516;82;21026;-81
2021/11/04 05:52:01;;;;;;;14.85;7.30;;;;;;;8.28;78.30;97184.71;1712312;83;20976;-81
2021/11/04 05:54:28;;;;;;;11.70;8.00;;;;;;;8.34;78.21;97197.30;1680205;85;20976;-81
2021/11/04 05:56:56;;;;;;;18.23;7.70;;;;;;;8.37;77.98;97195.41;1702169;83;21012;-81
2021/11/04 05:59:24;;;;;;;17.12;8.45;;;;;;;8.42;77.81;97191.28;1673905;86;21055;-81
2021/11/04 06:01:53;;;;;;;15.10;8.18;;;;;;;8.45;77.60;97182.82;1685440;83;21035;-80
2021/11/04 06:04:20;;;;;;;15.48;8.70;;;;;;;8.49;77.27;97182.25;1673915;86;21015;-81
2021/11/04 06:06:47;;;;;;;14.03;8.33;;;;;;;8.50;76.64;97180.01;1673913;86;21028;-81
2021/11/04 06:09:14;;;;;;;15.20;8.28;;;;;;;8.53;76.86;97175.98;1730518;83;21266;-80
2021/11/04 06:11:40;;;;;;;18.27;8.53;;;;;;;8.57;76.41;97184.66;1684304;84;21032;-80
2021/11/04 06:14:08;;;;;;;14.25;8.30;;;;;;;8.57;76.46;97186.85;1702059;83;21400;-80
2021/11/04 06:16:34;;;;;;;13.85;7.65;;;;;;;8.60;75.70;97184.56;1701807;84;21027;-81
2021/11/04 06:19:01;;;;;;;15.93;8.38;;;;;;;8.65;75.81;97189.67;1728551;83;21015;-81
2021/11/04 06:21:28;;;;;;;17.02;9.53;;;;;;;8.67;75.87;97183.86;1714195;83;20997;-80
2021/11/04 06:23:54;;;;;;;21.30;11.30;;;;;;;8.70;75.75;97183.77;1701852;84;20992;-81
2021/11/04 06:26:20;;;;;;;11.95;7.90;;;;;;;8.71;75.72;97176.23;1701978;83;21040;-81
2021/11/04 06:28:47;;;;;;;19.12;8.48;;;;;;;8.73;75.68;97162.53;1683202;83;21442;-81
2021/11/04 06:31:14;;;;;;;14.65;8.00;;;;;;;8.76;75.41;97154.95;1731854;82;20999;-81
2021/11/04 06:33:40;;;;;;;15.80;8.15;;;;;;;8.77;75.41;97152.27;1734562;83;21080;-81
2021/11/04 06:36:07;;;;;;;15.13;9.00;;;;;;;8.81;75.19;97153.86;1712784;83;21020;-81
2021/11/04 06:38:34;;;;;;;16.05;9.05;;;;;;;8.85;75.08;97162.08;1707434;84;21430;-81
2021/11/04 06:41:01;;;;;;;14.87;8.43;;;;;;;8.88;74.98;97157.14;1706336;84;21051;-81
2021/11/04 06:43:30;;;;;;;16.25;9.68;;;;;;;8.91;74.91;97168.06;1700109;84;21770;-80
2021/11/04 06:45:57;;;;;;;15.48;8.80;;;;;;;8.93;74.75;97159.16;1726988;83;21016;-81
2021/11/04 06:48:33;;;;;;;17.82;9.13;;;;;;;8.95;74.57;97151.18;1712563;83;21056;-81
2021/11/04 06:51:00;;;;;;;17.42;9.05;;;;;;;8.99;74.70;97144.87;1708455;84;21071;-80
2021/11/04 06:53:28;;;;;;;18.17;9.03;;;;;;;9.02;74.58;97148.73;1685757;84;21009;-80
2021/11/04 06:55:59;;;;;;;17.82;8.93;;;;;;;9.09;74.43;97161.23;1710488;84;20984;-80
2021/11/04 06:58:30;;;;;;;20.75;9.20;;;;;;;9.16;74.27;97150.84;1710546;84;21386;-80
2021/11/04 07:01:00;;;;;;;20.65;8.58;;;;;;;9.24;73.64;97153.20;1704351;84;21018;-80
2021/11/04 07:03:30;;;;;;;15.20;8.60;;;;;;;9.33;73.24;97163.43;1697097;84;21007;-80
2021/11/04 07:06:08;;;;;;;17.27;8.38;;;;;;;9.42;73.05;97154.75;1696691;85;21030;-80
2021/11/04 07:08:46;;;;;;;18.48;7.97;;;;;;;9.51;72.42;97156.56;1703626;84;21012;-81
2021/11/04 07:11:12;;;;;;;16.05;7.33;;;;;;;9.61;72.61;97157.08;1700056;84;21005;-81
2021/11/04 07:13:39;;;;;;;13.88;8.05;;;;;;;9.71;72.45;97159.38;1696911;85;21009;-81
2021/11/04 07:16:06;;;;;;;16.07;7.08;;;;;;;9.79;72.62;97155.94;1703459;84;20993;-81
2021/11/04 07:18:33;;;;;;;15.40;7.00;;;;;;;9.87;72.26;97155.63;1710293;84;21040;-82
2021/11/04 07:21:07;;;;;;;13.83;6.53;;;;;;;9.96;72.19;97143.83;1739468;81;21020;-81
2021/11/04 07:23:42;;;;;;;14.65;6.35;;;;;;;10.04;71.92;97139.05;1712754;83;21068;-82
2021/11/04 07:26:08;;;;;;;12.20;6.45;;;;;;;10.12;70.99;97118.88;1706692;84;21040;-81
2021/11/04 07:28:40;;;;;;;9.58;5.37;;;;;;;10.21;70.60;97122.47;1701599;84;21477;-81
2021/11/04 07:31:11;;;;;;;9.70;6.08;;;;;;;10.30;70.66;97125.21;1717181;82;21488;-82
2021/11/04 07:33:44;;;;;;;10.85;5.75;;;;;;;10.40;70.68;97112.42;1709210;84;21087;-82
2021/11/04 07:36:14;;;;;;;10.13;5.60;;;;;;;10.50;70.13;97108.95;1709102;84;21035;-81
2021/11/04 07:38:45;;;;;;;12.43;5.80;;;;;;;10.59;69.61;97113.82;1708873;83;21031;-79
2021/11/04 07:41:12;;;;;;;12.58;5.55;;;;;;;10.70;69.32;97114.69;1697602;84;20996;-81
2021/11/04 07:43:38;;;;;;;9.23;5.65;;;;;;;10.83;69.02;97108.37;1705783;84;21412;-81
2021/11/04 07:46:05;;;;;;;10.88;5.72;;;;;;;10.96;69.22;97107.34;1709250;84;21035;-79
2021/11/04 07:48:32;;;;;;;11.33;4.92;;;;;;;11.09;68.66;97120.44;1712752;83;21480;-81
2021/11/04 07:50:59;;;;;;;13.98;5.55;;;;;;;11.23;68.33;97108.34;1709034;84;21325;-81
2021/11/04 07:53:27;;;;;;;10.85;5.35;;;;;;;11.35;66.17;97109.56;1708866;84;21011;-82
2021/11/04 07:55:54;;;;;;;15.83;6.20;;;;;;;11.46;67.42;97099.78;1709150;84;21003;-84
2021/11/04 07:58:22;;;;;;;8.78;5.33;;;;;;;11.61;66.86;97094.19;1707751;82;21429;-81
2021/11/04 08:00:48;;;;;;;11.33;6.03;;;;;;;11.72;66.14;97063.98;1708425;84;21107;-82
2021/11/04 08:03:15;;;;;;;10.23;5.35;;;;;;;11.83;65.92;97076.73;1708474;83;21452;-83
2021/11/04 08:05:42;;;;;;;11.10;6.00;;;;;;;11.93;63.76;97098.41;1708324;84;20979;-82
2021/11/04 08:08:09;;;;;;;9.30;5.33;;;;;;;12.06;65.51;97080.09;1709699;83;21062;-82
2021/11/04 08:10:36;;;;;;;13.70;6.25;;;;;;;12.20;64.96;97075.88;1718747;83;21429;-83
2021/11/04 08:13:07;;;;;;;11.28;5.37;;;;;;;12.31;64.42;97091.25;1708984;84;20960;-82
2021/11/04 08:15:32;;;;;;;13.20;6.15;;;;;;;12.42;64.75;97072.97;1681088;84;21016;-82
2021/11/04 08:18:00;;;;;;;10.10;5.78;;;;;;;12.52;65.56;97058.27;1706426;84;20995;-82
2021/11/04 08:20:28;;;;;;;10.70;5.55;;;;;;;12.63;64.79;97072.30;1709599;84;20988;-82
2021/11/04 08:22:56;;;;;;;8.78;5.20;;;;;;;12.73;64.41;97079.78;1708838;84;21105;-82
2021/11/04 08:25:25;;;;;;;10.30;5.10;;;;;;;12.87;64.18;97085.22;1709004;83;21420;-82
2021/11/04 08:27:52;;;;;;;10.15;5.80;;;;;;;13.01;63.35;97071.66;1733952;83;21516;-83
2021/11/04 08:30:21;;;;;;;10.70;5.58;;;;;;;13.13;63.19;97085.63;1687504;85;21068;-84
2021/11/04 08:32:48;;;;;;;14.63;5.92;;;;;;;13.23;63.93;97081.11;1700466;82;21060;-81
2021/11/04 08:35:15;;;;;;;14.75;6.45;;;;;;;13.29;62.45;97081.63;1718420;83;21792;-83
2021/11/04 08:37:44;;;;;;;10.63;5.33;;;;;;;13.31;62.87;97085.09;1706469;84;21101;-84
2021/11/04 08:40:11;;;;;;;14.65;5.90;;;;;;;13.34;62.62;97112.84;1707831;84;21010;-81
2021/11/04 08:42:39;;;;;;;10.80;5.17;;;;;;;13.39;62.35;97097.09;1707905;84;21033;-81
2021/11/04 08:45:08;;;;;;;10.70;5.75;;;;;;;13.42;60.44;97095.11;1707613;84;21497;-82
2021/11/04 08:47:35;;;;;;;13.15;5.22;;;;;;;13.48;61.07;97099.73;1632279;84;21060;-83
2021/11/04 08:50:05;;;;;;;9.08;5.00;;;;;;;13.52;60.05;97107.94;1707840;84;20978;-83
2021/11/04 08:52:32;;;;;;;11.65;5.30;;;;;;;13.59;59.55;97085.38;1707725;84;21010;-83
2021/11/04 08:55:00;;;;;;;9.80;5.55;;;;;;;13.69;61.25;97073.25;1707625;84;21103;-85
2021/11/04 08:57:29;;;;;;;8.65;5.33;;;;;;;13.77;60.94;97088.78;1678770;84;20953;-84
2021/11/04 08:59:56;;;;;;;10.68;5.58;;;;;;;13.88;61.75;97094.84;1710891;84;21028;-83
2021/11/04 09:02:25;;;;;;;10.43;5.30;;;;;;;13.98;60.83;97081.83;1691874;85;21044;-83
2021/11/04 09:04:52;;;;;;;7.78;5.12;;;;;;;14.09;61.56;97088.74;1706659;84;21128;-84
2021/11/04 09:07:21;;;;;;;9.18;5.15;;;;;;;14.22;59.74;97081.34;1679998;83;20992;-83
2021/11/04 09:09:49;;;;;;;10.00;5.22;;;;;;;14.31;60.68;97081.26;1741953;82;21041;-83
2021/11/04 09:12:17;;;;;;;10.20;4.80;;;;;;;14.37;61.06;97079.09;1692286;85;21040;-83
2021/11/04 09:14:44;;;;;;;10.00;4.80;;;;;;;14.41;58.64;97079.75;1707474;84;21008;-82
2021/11/04 09:17:12;;;;;;;11.88;4.90;;;;;;;14.49;59.93;97076.66;1707216;84;21557;-84
2021/11/04 09:19:41;;;;;;;10.82;5.33;;;;;;;14.54;60.62;97074.57;1696565;85;21066;-85
2021/11/04 09:22:08;;;;;;;8.13;4.45;;;;;;;14.61;60.58;97079.02;1701793;84;21473;-84
2021/11/04 09:24:35;;;;;;;9.60;4.90;;;;;;;14.67;59.61;97072.01;1758944;81;20937;-84
2021/11/04 09:27:03;;;;;;;11.05;4.90;;;;;;;14.76;59.60;97059.48;1758607;81;21413;-84
2021/11/04 09:29:33;;;;;;;12.80;5.42;;;;;;;14.85;60.74;97061.17;1724290;82;21037;-83
2021/11/04 09:32:00;;;;;;;10.50;5.47;;;;;;;14.95;60.40;97066.31;1733030;82;20978;-83
2021/11/04 09:34:28;;;;;;;8.70;4.90;;;;;;;15.04;60.51;97048.89;1736046;82;21034;-84
2021/11/04 09:36:58;;;;;;;10.08;4.90;;;;;;;15.12;60.01;97047.91;1720119;82;21100;-83
2021/11/04 09:39:25;;;;;;;10.65;5.00;;;;;;;15.23;60.24;97055.73;1747147;82;21001;-86
2021/11/04 09:41:54;;;;;;;9.18;5.50;;;;;;;15.35;59.88;97051.39;1738278;82;21496;-83
2021/11/04 09:44:21;;;;;;;10.93;5.37;;;;;;;15.42;60.00;97049.59;1744645;81;20981;-84
2021/11/04 09:46:48;;;;;;;10.75;5.15;;;;;;;15.50;58.99;97046.89;1657503;82;21021;-83
2021/11/04 09:49:17;;;;;;;10.85;4.80;;;;;;;15.59;58.68;97047.62;1730459;82;20981;-83
2021/11/04 09:51:44;;;;;;;12.45;5.78;;;;;;;15.67;58.54;97043.11;1727298;82;21068;-83
2021/11/04 09:54:11;;;;;;;14.80;5.53;;;;;;;15.73;58.61;97040.53;1712375;82;21013;-83
2021/11/04 09:56:37;;;;;;;14.50;5.85;;;;;;;15.79;58.82;97038.78;1748277;82;21442;-84
2021/11/04 09:59:05;;;;;;;13.90;5.45;;;;;;;15.83;57.34;97033.62;1748732;82;21043;-83
2021/11/04 10:01:34;;;;;;;10.45;5.65;;;;;;;15.89;58.47;97034.53;1748648;82;21115;-84
2021/11/04 10:04:03;;;;;;;11.78;6.25;;;;;;;15.95;58.05;97019.95;1747975;82;21056;-83
2021/11/04 10:06:34;;;;;;;8.75;5.22;;;;;;;16.01;58.12;97029.34;1731328;83;21015;-84
2021/11/04 10:09:05;;;;;;;14.45;5.60;;;;;;;16.07;57.34;97026.28;1739696;82;21433;-84
2021/11/04 10:11:37;;;;;;;12.85;6.15;;;;;;;16.15;58.22;97015.91;1735537;82;21013;-83
2021/11/04 10:14:10;;;;;;;13.48;5.45;;;;;;;16.22;57.30;97017.69;1691484;82;21061;-83
2021/11/04 10:16:38;;;;;;;13.55;5.12;;;;;;;16.41;56.68;97002.59;1719040;82;21068;-85
2021/11/04 10:19:11;;;;;;;12.03;4.40;;;;;;;16.63;57.65;97013.11;1720324;82;21005;-82
2021/11/04 10:21:46;;;;;;;10.40;4.08;;;;;;;16.79;56.68;97011.55;1748792;82;21009;-85
2021/11/04 10:24:26;;;;;;;7.83;4.05;;;;;;;16.95;56.47;97018.01;1744526;82;20985;-84
2021/11/04 10:26:55;;;;;;;8.30;3.75;;;;;;;17.19;56.24;97012.36;1741673;82;21490;-83
2021/11/04 10:29:36;;;;;;;11.20;3.87;;;;;;;17.67;56.44;97014.21;1731185;82;21025;-82
2021/11/04 10:32:03;;;;;;;9.80;4.05;;;;;;;18.20;55.97;97004.95;1721387;83;21433;-82
2021/11/04 10:34:34;;;;;;;8.55;3.40;;;;;;;18.73;54.37;96996.86;1706691;83;21007;-83
2021/11/04 10:37:19;;;;;;;11.55;3.20;;;;;;;19.19;52.33;96990.98;1679120;84;21043;-82
2021/11/04 10:39:52;;;;;;;8.33;3.30;;;;;;;19.76;51.25;96989.97;1702171;84;21509;-83
2021/11/04 10:42:18;;;;;;;7.78;3.35;;;;;;;20.14;51.44;96986.44;1709356;84;21031;-82
2021/11/04 10:44:45;;;;;;;10.35;3.20;;;;;;;20.37;48.75;96982.24;1712811;83;20992;-83
2021/11/04 10:47:21;;;;;;;10.75;3.10;;;;;;;20.73;49.47;96977.36;1711257;83;21464;-84
2021/11/04 10:49:51;;;;;;;8.40;2.95;;;;;;;20.97;48.92;96974.35;1709348;84;21023;-83
2021/11/04 10:52:24;;;;;;;7.47;3.00;;;;;;;21.61;45.53;96975.91;1709579;84;21450;-83
2021/11/04 10:55:17;;;;;;;;;;;;;;;;;;;;;
2021/11/04 10:57:46;;;;;;;9.00;2.50;;;;;;;23.94;42.97;96969.17;1710917;83;21119;-83
2021/11/04 11:00:22;;;;;;;6.97;2.22;;;;;;;25.11;40.87;96961.34;1655795;84;21050;-85
2021/11/04 11:03:09;;;;;;;6.47;2.23;;;;;;;25.11;40.87;96961.34;1691541;84;21019;-83
2021/11/04 11:05:41;;;;;;;8.78;2.40;;;;;;;26.45;38.41;96970.05;1709499;83;21732;-82
2021/11/04 11:08:10;;;;;;;8.43;2.10;;;;;;;27.03;36.43;96960.09;1685572;85;21029;-83
2021/11/04 11:10:39;;;;;;;8.33;2.12;;;;;;;27.14;33.62;96959.20;1695461;84;21389;-82
2021/11/04 11:13:07;;;;;;;5.35;2.05;;;;;;;27.60;33.75;96956.26;1709201;84;21003;-83
2021/11/04 11:15:43;;;;;;;5.65;2.00;;;;;;;28.69;33.49;96951.63;1725767;83;21023;-82
2021/11/04 11:18:11;;;;;;;7.03;2.27;;;;;;;29.33;31.19;96948.01;1693753;84;21493;-83
2021/11/04 11:20:44;;;;;;;5.60;2.15;;;;;;;29.72;29.25;96945.12;1679910;85;21049;-84
2021/11/04 11:23:15;;;;;;;;;;;;;;;30.10;28.10;96951.66;1719460;84;21583;-86
2021/11/04 11:25:53;;;;;;;6.30;2.60;;;;;;;30.22;27.85;96945.17;1688236;84;20365;-84
2021/11/04 11:28:21;;;;;;;7.37;2.08;;;;;;;30.85;28.02;96946.82;1727133;83;21467;-87
2021/11/04 11:31:12;;;;;;;5.35;1.80;;;;;;;31.16;26.71;96941.39;1709142;84;21476;-81
2021/11/04 11:33:45;;;;;;;5.42;2.20;;;;;;;31.52;24.44;96933.98;1741760;82;21494;-79
2021/11/04 11:36:22;;;;;;;4.70;2.47;;;;;;;31.35;24.45;96937.92;1708569;84;21036;-82
2021/11/04 11:39:14;;;;;;;5.70;2.37;;;;;;;31.98;26.70;96937.91;1706345;84;22207;-84